Notice: Undefined index: language in /home/u232659314/public_html/vam/index.php on line 31
Pluna Virtual

METAR AND TAF INFORMATION
METAR FOR SUSO
ADDS - METARS form results

(0124 UTC 25 March 2019)
Data provider http://aviationweather.gov/metar/data/
 
Forecast for: SUSO (SALTO , UY)
Text: SUSO 242330Z 2500/2524 20018KT 9999 FEW030 TX21/2518Z TN13/2509Z
Forecast period: 0000 UTC 25 March 2019 to 0000 UTC 26 March 2019
Forecast type: FROM: standard forecast or significant change
Winds: from the SSW (200 degrees) at 21 MPH (18 knots; 9.3 m/s)
Visibility: 6 or more miles 10+ km)
Ceiling: at least 12,000 feet AGL
Clouds: few clouds at 3000 feet AGL
Weather: no significant weather forecast for this period

AIRPORT MAP

RUNWAY INFORMATION
Runway 05 Runway length 5210 ft Runway width 148 ft
Runway elevation 187 ft Runway displaced threshold 0 ft Runway heading 39
Runway 23 Runway length 5210 ft Runway width 148 ft
Runway elevation 171 ft Runway displaced threshold 0 ft Runway heading 219
Runway 13 Runway length 2461 ft Runway width 164 ft
Runway elevation 157 ft Runway displaced threshold 0 ft Runway heading 116
Runway 31 Runway length 2461 ft Runway width 164 ft
Runway elevation 174 ft Runway displaced threshold 0 ft Runway heading 296

AIRPORT FREQUENCIES
Type RDO Name SALTO RDO Frequency 286 MHZ
Type TWR Name SALTO TWR Frequency 118.8 MHZ

AIRPORT NEAR NAVIGATION AIDS
Type NDB Name Salto Frequency 410 KHZ
Type VOR Name Salto Frequency 117900 KHZ